Beaver, Utah
Current Conditions -  °F | °C
As of 12:52 PM on Saturday 20 Dec 2014 (Local Time) from KMLF Reporting Station
Overcast Overcast  
Wind Chill: 32°   Ceiling: 8500
Heat Index: 41°   Visibility: 10mi
Dew Point: 29°   Wind: 18mph
Humidity: 62%   Direction: 200°SSW
Pressure: 30.08"   Gusts: NA
Location:  38.28°N, 112.64°W
Report Text: KMLF 201952Z AUTO 20016KT 10SM OVC085 05/M02 A3008 RMK AO2 SLP185 T00501017 TSNO
Loading
Personal Weather Stations






























Interactive Weather Map New forecast layout! Learn more

10-Day Weather Forecast

Advertisements
Track Severe Weather on mobile